Time;durP1;ratioP1;P1;durP2;ratioP2;P2;SDS_P1;SDS_P2;PMS_P1;PMS_P2;Temp;Humidity;BMP_temperature;BMP_pressure;BME280_temperature;BME280_humidity;BME280_pressure;Samples;Min_cycle;Max_cycle;Signal;HPM_P1;HPM_P2
2023/01/25 00:00:40;;;;;;;18.10;9.55;;;;;;;-3.90;100.00;100329.91;5160166;27;20415;-66
2023/01/25 00:03:07;;;;;;;15.40;8.68;;;;;;;-3.92;100.00;100305.25;5160486;27;20043;-63
2023/01/25 00:05:33;;;;;;;16.35;8.52;;;;;;;-3.81;100.00;100302.50;5160052;27;20106;-64
2023/01/25 00:07:59;;;;;;;12.02;5.93;;;;;;;-3.93;100.00;100293.72;5160274;27;20131;-62
2023/01/25 00:10:25;;;;;;;16.95;8.77;;;;;;;-4.17;100.00;100297.56;5160259;27;20060;-65
2023/01/25 00:12:52;;;;;;;16.85;9.15;;;;;;;-4.18;100.00;100310.13;5160099;27;20055;-63
2023/01/25 00:15:18;;;;;;;15.13;9.07;;;;;;;-4.06;100.00;100320.81;5160126;27;20046;-62
2023/01/25 00:17:45;;;;;;;12.38;7.88;;;;;;;-4.11;100.00;100334.91;5160024;27;20047;-64
2023/01/25 00:20:11;;;;;;;20.50;8.93;;;;;;;-3.95;100.00;100345.91;5160248;27;20118;-64
2023/01/25 00:22:37;;;;;;;15.65;9.05;;;;;;;-4.00;100.00;100313.66;5159842;27;20050;-64
2023/01/25 00:25:04;;;;;;;18.00;9.18;;;;;;;-4.11;100.00;100294.72;5160187;27;20050;-65
2023/01/25 00:27:30;;;;;;;17.17;8.55;;;;;;;-4.05;100.00;100306.34;5159734;27;20051;-65
2023/01/25 00:29:57;;;;;;;20.55;9.57;;;;;;;-3.93;100.00;100303.59;5160014;27;20103;-64
2023/01/25 00:32:36;;;;;;;16.38;8.77;;;;;;;-3.94;100.00;100283.22;5159815;27;20055;-65
2023/01/25 00:35:03;;;;;;;18.75;9.57;;;;;;;-4.14;100.00;100271.09;5159586;27;20054;-65
2023/01/25 00:37:35;;;;;;;10.40;6.55;;;;;;;-4.09;100.00;100284.59;5159833;27;20153;-66
2023/01/25 00:40:02;;;;;;;15.20;8.13;;;;;;;-3.92;100.00;100306.06;5159647;27;20131;-65
2023/01/25 00:42:28;;;;;;;14.35;8.57;;;;;;;-3.80;100.00;100312.19;5159815;27;20050;-66
2023/01/25 00:44:54;;;;;;;17.77;9.55;;;;;;;-3.75;100.00;100292.69;5159553;27;20339;-63
2023/01/25 00:47:21;;;;;;;17.35;9.48;;;;;;;-3.87;100.00;100300.78;5159702;27;20053;-66
2023/01/25 00:49:47;;;;;;;17.45;8.45;;;;;;;-3.74;100.00;100322.97;5159300;27;20367;-64
2023/01/25 00:52:14;;;;;;;18.83;10.20;;;;;;;-3.48;100.00;100354.50;5159756;27;20062;-64
2023/01/25 00:54:40;;;;;;;17.38;10.00;;;;;;;-3.58;100.00;100316.81;5158363;27;20050;-65
2023/01/25 00:57:08;;;;;;;18.40;9.35;;;;;;;-3.58;100.00;100309.56;5159718;27;20046;-63
2023/01/25 00:59:34;;;;;;;17.75;8.90;;;;;;;-3.61;100.00;100279.75;5159440;27;20051;-63
2023/01/25 01:02:00;;;;;;;16.20;8.95;;;;;;;-3.70;100.00;100265.94;5159012;27;20107;-65
2023/01/25 01:04:27;;;;;;;17.67;9.07;;;;;;;-3.70;100.00;100241.03;5159479;27;20042;-64
2023/01/25 01:06:54;;;;;;;17.50;6.60;;;;;;;-3.75;100.00;100224.88;5159190;27;20061;-66
2023/01/25 01:09:22;;;;;;;12.70;8.32;;;;;;;-3.96;100.00;100232.59;5159218;27;20050;-65
2023/01/25 01:11:48;;;;;;;17.73;8.85;;;;;;;-3.79;100.00;100244.13;5158898;27;20430;-66
2023/01/25 01:14:15;;;;;;;15.73;8.48;;;;;;;-3.88;100.00;100221.47;5159344;27;20047;-62
2023/01/25 01:16:41;;;;;;;19.27;8.98;;;;;;;-3.78;100.00;100223.50;5159056;27;20054;-65
2023/01/25 01:19:07;;;;;;;17.42;8.90;;;;;;;-3.79;100.00;100233.41;5159122;27;20043;-61
2023/01/25 01:21:34;;;;;;;17.95;9.50;;;;;;;-3.63;100.00;100247.03;5158860;27;20129;-66
2023/01/25 01:24:00;;;;;;;18.40;9.77;;;;;;;-3.57;100.00;100235.31;5159225;27;20046;-63
2023/01/25 01:26:27;;;;;;;20.73;9.38;;;;;;;-3.45;100.00;100228.00;5158719;27;20047;-64
2023/01/25 01:28:53;;;;;;;17.30;9.10;;;;;;;-3.42;100.00;100198.03;5158982;27;20327;-63
2023/01/25 01:31:21;;;;;;;16.10;9.38;;;;;;;-3.40;100.00;100179.84;5158663;27;20046;-65
2023/01/25 01:33:49;;;;;;;18.70;9.23;;;;;;;-3.53;100.00;100187.41;5158746;27;20051;-64
2023/01/25 01:36:18;;;;;;;15.05;8.48;;;;;;;-3.40;100.00;100176.31;5158973;27;20054;-62
2023/01/25 01:38:45;;;;;;;15.40;8.27;;;;;;;-3.47;100.00;100173.00;5158726;27;20047;-66
2023/01/25 01:41:12;;;;;;;18.60;9.60;;;;;;;-3.46;100.00;100185.38;5158818;27;20062;-65
2023/01/25 01:43:38;;;;;;;16.90;9.30;;;;;;;-3.44;100.00;100189.41;5158458;27;20055;-67
2023/01/25 01:46:09;;;;;;;14.55;7.70;;;;;;;-3.49;100.00;100218.84;5158822;27;20043;-66
2023/01/25 01:48:40;;;;;;;17.00;9.05;;;;;;;-3.85;100.00;100212.13;5158413;27;20047;-62
2023/01/25 01:51:14;;;;;;;21.27;7.65;;;;;;;-3.59;100.00;100257.03;5158362;27;20050;-67
2023/01/25 01:53:43;;;;;;;15.43;8.77;;;;;;;-3.45;100.00;100262.88;5158401;27;20046;-64
2023/01/25 01:56:15;;;;;;;15.88;8.65;;;;;;;-3.69;100.00;100243.47;5158274;27;20060;-64
2023/01/25 01:58:43;;;;;;;15.18;7.85;;;;;;;-3.58;100.00;100260.53;5158460;27;20042;-63
2023/01/25 02:01:10;;;;;;;13.52;7.22;;;;;;;-3.30;100.00;100262.25;5158369;27;20054;-65
2023/01/25 02:03:38;;;;;;;18.42;8.15;;;;;;;-3.59;100.00;100234.78;5158538;27;20046;-63
2023/01/25 02:06:10;;;;;;;12.90;6.10;;;;;;;-3.52;100.00;100224.69;5157937;27;20050;-67
2023/01/25 02:08:39;;;;;;;13.75;7.50;;;;;;;-3.60;100.00;100220.56;5158607;27;20046;-63
2023/01/25 02:11:07;;;;;;;15.05;8.00;;;;;;;-3.56;100.00;100202.94;5158005;27;20043;-65
2023/01/25 02:13:36;;;;;;;14.73;7.65;;;;;;;-3.46;100.00;100186.19;5158680;27;20134;-64
2023/01/25 02:16:03;;;;;;;14.32;7.88;;;;;;;-3.62;100.00;100200.44;5158393;27;20078;-66
2023/01/25 02:18:30;;;;;;;15.77;7.68;;;;;;;-3.44;100.00;100226.94;5158051;27;20055;-63
2023/01/25 02:20:59;;;;;;;13.50;8.57;;;;;;;-3.34;100.00;100221.72;5158053;27;20055;-65
2023/01/25 02:23:32;;;;;;;13.65;7.55;;;;;;;-3.19;100.00;100223.81;5157827;27;20464;-64
2023/01/25 02:26:02;;;;;;;13.65;7.63;;;;;;;-3.11;100.00;100201.09;5158239;27;20055;-62
2023/01/25 02:28:33;;;;;;;20.50;7.22;;;;;;;-3.12;100.00;100165.44;5157776;27;20058;-65
2023/01/25 02:30:59;;;;;;;13.75;6.80;;;;;;;-3.12;100.00;100146.66;5158082;27;20403;-66
2023/01/25 02:33:27;;;;;;;14.57;7.85;;;;;;;-3.24;100.00;100137.09;5157791;27;20061;-62
2023/01/25 02:35:59;;;;;;;15.32;7.95;;;;;;;-2.99;100.00;100124.00;5158213;27;20720;-65
2023/01/25 02:38:25;;;;;;;13.48;7.88;;;;;;;-2.98;100.00;100114.88;5157696;27;20046;-65
2023/01/25 02:40:56;;;;;;;13.88;8.07;;;;;;;-2.98;100.00;100100.66;5157913;27;20062;-63
2023/01/25 02:43:28;;;;;;;9.80;6.40;;;;;;;-3.02;100.00;100100.34;5157761;27;20053;-62
2023/01/25 02:45:59;;;;;;;15.32;6.82;;;;;;;-3.06;100.00;100093.88;5157571;27;20054;-66
2023/01/25 02:48:26;;;;;;;11.45;6.80;;;;;;;-3.23;100.00;100090.44;5157470;27;20099;-61
2023/01/25 02:50:52;;;;;;;12.60;6.88;;;;;;;-3.22;100.00;100108.19;5157595;27;20083;-66
2023/01/25 02:53:18;;;;;;;12.13;7.20;;;;;;;-3.10;100.00;100116.88;5157924;27;20054;-62
2023/01/25 02:55:44;;;;;;;12.43;6.65;;;;;;;-3.26;100.00;100125.84;5157708;27;20421;-66
2023/01/25 02:58:10;;;;;;;16.27;6.38;;;;;;;-3.11;100.00;100120.63;5157929;27;20043;-62
2023/01/25 03:00:37;;;;;;;25.50;10.82;;;;;;;-3.09;100.00;100108.59;5157348;27;20051;-65
2023/01/25 03:03:04;;;;;;;11.30;5.80;;;;;;;-3.06;100.00;100114.53;5157817;27;20046;-64
2023/01/25 03:05:30;;;;;;;13.50;7.07;;;;;;;-3.34;100.00;100119.03;5157677;27;20051;-63
2023/01/25 03:07:56;;;;;;;13.07;7.07;;;;;;;-3.37;100.00;100135.59;5157319;27;20331;-64
2023/01/25 03:10:22;;;;;;;13.77;7.22;;;;;;;-3.13;100.00;100154.97;5157359;27;20189;-62
2023/01/25 03:12:48;;;;;;;13.55;7.30;;;;;;;-3.06;100.00;100142.16;5157460;27;20107;-65
2023/01/25 03:15:15;;;;;;;13.32;7.30;;;;;;;-3.03;100.00;100130.94;5157445;27;20416;-64
2023/01/25 03:17:42;;;;;;;11.60;6.68;;;;;;;-2.96;100.00;100134.22;5159510;27;20043;-66
2023/01/25 03:20:09;;;;;;;9.10;5.80;;;;;;;-2.99;100.00;100131.25;5161226;27;20115;-62
2023/01/25 03:22:35;;;;;;;16.67;6.85;;;;;;;-3.03;100.00;100117.53;5160879;27;20054;-64
2023/01/25 03:25:01;;;;;;;15.40;7.72;;;;;;;-3.04;100.00;100113.19;5161064;27;20042;-64
2023/01/25 03:27:29;;;;;;;19.77;7.35;;;;;;;-3.04;100.00;100117.75;5160739;27;20046;-62
2023/01/25 03:29:55;;;;;;;15.20;7.45;;;;;;;-3.03;100.00;100120.22;5161057;27;20399;-64
2023/01/25 03:32:22;;;;;;;15.60;7.53;;;;;;;-3.02;100.00;100153.22;5160447;27;20487;-65
2023/01/25 03:34:49;;;;;;;13.57;7.90;;;;;;;-2.99;100.00;100144.66;5160813;27;20111;-66
2023/01/25 03:37:15;;;;;;;10.65;6.93;;;;;;;-3.02;100.00;100159.38;5160826;27;20051;-62
2023/01/25 03:39:41;;;;;;;12.70;7.40;;;;;;;-3.12;100.00;100212.91;5160716;27;20050;-64
2023/01/25 03:42:08;;;;;;;13.60;7.15;;;;;;;-2.99;100.00;100228.63;5160817;27;20046;-64
2023/01/25 03:44:34;;;;;;;11.57;7.18;;;;;;;-2.98;100.00;100224.06;5160353;27;20438;-64
2023/01/25 03:47:00;;;;;;;17.35;7.90;;;;;;;-2.98;100.00;100207.97;5160611;27;20051;-64
2023/01/25 03:49:26;;;;;;;11.75;6.85;;;;;;;-2.87;100.00;100223.13;5160475;27;20046;-64
2023/01/25 03:51:53;;;;;;;13.75;8.07;;;;;;;-2.85;100.00;100227.19;5160731;27;20051;-65
2023/01/25 03:54:20;;;;;;;15.15;7.18;;;;;;;-2.72;100.00;100244.78;5160305;27;20046;-66
2023/01/25 03:56:46;;;;;;;14.45;7.68;;;;;;;-2.81;100.00;100243.59;5160671;27;20057;-63
2023/01/25 03:59:12;;;;;;;15.82;7.85;;;;;;;-2.76;100.00;100243.69;5160225;27;20057;-67
2023/01/25 04:01:38;;;;;;;15.95;8.13;;;;;;;-2.78;100.00;100218.94;5160570;27;20050;-64
2023/01/25 04:04:05;;;;;;;15.05;8.32;;;;;;;-3.01;100.00;100208.47;5160299;27;20046;-65
2023/01/25 04:06:31;;;;;;;12.13;7.53;;;;;;;-2.77;100.00;100230.50;5160309;27;20055;-64
2023/01/25 04:08:58;;;;;;;12.30;7.53;;;;;;;-2.72;100.00;100223.31;5160352;27;20368;-65
2023/01/25 04:11:24;;;;;;;10.85;6.45;;;;;;;-2.59;100.00;100195.28;5159827;27;20442;-63
2023/01/25 04:13:50;;;;;;;13.50;7.47;;;;;;;-2.74;100.00;100187.03;5160155;27;20057;-66
2023/01/25 04:16:16;;;;;;;10.82;6.70;;;;;;;-2.56;100.00;100178.66;5159976;27;20061;-63
2023/01/25 04:18:43;;;;;;;12.82;7.50;;;;;;;-2.79;100.00;100147.56;5159743;27;20430;-66
2023/01/25 04:21:09;;;;;;;13.82;6.88;;;;;;;-2.74;100.00;100146.78;5159715;27;20050;-62
2023/01/25 04:23:35;;;;;;;11.57;6.68;;;;;;;-2.81;100.00;100195.28;5160118;27;20055;-67
2023/01/25 04:26:04;;;;;;;10.80;5.80;;;;;;;-2.97;100.00;100199.66;5159766;27;20385;-63
2023/01/25 04:28:32;;;;;;;15.93;6.93;;;;;;;-2.88;100.00;100198.16;5160074;27;20046;-63
2023/01/25 04:30:58;;;;;;;11.60;6.10;;;;;;;-2.66;100.00;100211.59;5159793;27;20060;-63
2023/01/25 04:33:25;;;;;;;9.18;5.43;;;;;;;-2.63;100.00;100176.19;5159454;27;20400;-64
2023/01/25 04:35:51;;;;;;;8.05;5.22;;;;;;;-2.71;100.00;100165.88;5159665;27;20297;-63
2023/01/25 04:38:17;;;;;;;9.73;5.93;;;;;;;-2.65;100.00;100153.34;5159439;27;20103;-67
2023/01/25 04:40:45;;;;;;;6.53;4.85;;;;;;;-2.77;100.00;100121.25;5159767;27;20337;-64
2023/01/25 04:43:13;;;;;;;8.30;4.82;;;;;;;-2.64;100.00;100138.84;5159471;27;20438;-65
2023/01/25 04:45:39;;;;;;;11.45;5.55;;;;;;;-2.56;100.00;100135.72;5159521;27;20057;-65
2023/01/25 04:48:08;;;;;;;12.57;5.75;;;;;;;-2.71;100.00;100103.34;5159256;27;20056;-63
2023/01/25 04:50:35;;;;;;;11.23;6.03;;;;;;;-2.64;100.00;100109.31;5159585;27;20145;-66
2023/01/25 04:53:01;;;;;;;10.65;5.82;;;;;;;-2.65;100.00;100092.41;5159160;27;20058;-65
2023/01/25 04:55:28;;;;;;;9.55;5.40;;;;;;;-2.67;100.00;100075.72;5159210;27;20058;-65
2023/01/25 04:57:54;;;;;;;11.55;5.85;;;;;;;-2.62;100.00;100075.78;5158943;27;20065;-66
2023/01/25 05:00:21;;;;;;;12.65;5.45;;;;;;;-2.59;100.00;100084.41;5158792;27;20043;-63
2023/01/25 05:02:47;;;;;;;14.73;6.30;;;;;;;-2.62;100.00;100104.50;5158859;27;20058;-65
2023/01/25 05:05:14;;;;;;;11.65;6.13;;;;;;;-2.53;100.00;100094.94;5158943;27;20058;-64
2023/01/25 05:07:40;;;;;;;10.13;5.18;;;;;;;-2.47;100.00;100101.94;5159252;27;20137;-62
2023/01/25 05:10:08;;;;;;;10.02;5.97;;;;;;;-2.48;100.00;100094.97;5158715;27;20042;-66
2023/01/25 05:12:34;;;;;;;18.48;8.38;;;;;;;-2.55;100.00;100110.47;5159212;27;20057;-67
2023/01/25 05:15:00;;;;;;;12.48;6.97;;;;;;;-2.58;100.00;100118.22;5158635;27;20057;-64
2023/01/25 05:17:27;;;;;;;10.93;6.35;;;;;;;-2.61;100.00;100119.53;5159136;27;20129;-67
2023/01/25 05:19:54;;;;;;;13.40;6.57;;;;;;;-2.57;100.00;100123.31;5158879;27;20361;-64
2023/01/25 05:22:20;;;;;;;11.45;6.35;;;;;;;-2.57;100.00;100130.56;5159091;27;20107;-62
2023/01/25 05:24:47;;;;;;;11.70;6.95;;;;;;;-2.81;100.00;100117.47;5158547;27;20344;-68
2023/01/25 05:27:16;;;;;;;15.05;8.10;;;;;;;-2.68;100.00;100218.25;5158981;27;20065;-71
2023/01/25 05:29:44;;;;;;;12.10;6.55;;;;;;;-2.59;100.00;100206.00;5158922;27;20397;-66
2023/01/25 05:32:12;;;;;;;14.30;7.93;;;;;;;-2.66;100.00;100168.63;5158892;27;20345;-75
2023/01/25 05:34:39;;;;;;;13.23;7.05;;;;;;;-2.64;100.00;100184.47;5159127;27;20046;-71
2023/01/25 05:37:07;;;;;;;10.15;6.40;;;;;;;-2.64;100.00;100169.16;5158413;27;20057;-66
2023/01/25 05:39:33;;;;;;;15.52;7.22;;;;;;;-2.57;100.00;100174.34;5158127;27;20047;-65
2023/01/25 05:42:00;;;;;;;15.75;7.95;;;;;;;-2.51;100.00;100162.59;5158393;27;20050;-67
2023/01/25 05:44:26;;;;;;;14.80;7.57;;;;;;;-2.62;100.00;100155.50;5158728;27;20042;-64
2023/01/25 05:46:52;;;;;;;12.60;7.22;;;;;;;-2.62;100.00;100203.84;5158220;27;20061;-67
2023/01/25 05:49:19;;;;;;;14.93;8.05;;;;;;;-2.68;100.00;100213.69;5158659;27;20353;-67
2023/01/25 05:51:46;;;;;;;19.13;9.20;;;;;;;-2.64;100.00;100232.78;5157982;27;20454;-67
2023/01/25 05:54:14;;;;;;;15.82;7.60;;;;;;;-2.52;100.00;100228.09;5157906;27;20313;-67
2023/01/25 05:56:41;;;;;;;19.25;9.13;;;;;;;-2.53;100.00;100185.38;5158155;27;20052;-67
2023/01/25 05:59:09;;;;;;;16.60;9.32;;;;;;;-2.71;100.00;100176.63;5157861;27;20058;-64
2023/01/25 06:01:35;;;;;;;15.57;8.57;;;;;;;-2.52;100.00;100200.44;5158161;27;20109;-67
2023/01/25 06:04:01;;;;;;;16.52;8.57;;;;;;;-2.33;100.00;100208.94;5157923;27;20081;-65
2023/01/25 06:06:28;;;;;;;19.55;9.65;;;;;;;-2.21;100.00;100177.38;5158088;27;20053;-68
2023/01/25 06:08:55;;;;;;;18.48;9.13;;;;;;;-2.17;100.00;100141.66;5157698;27;20182;-65
2023/01/25 06:11:23;;;;;;;20.48;10.35;;;;;;;-2.24;100.00;100133.00;5158173;27;20050;-66
2023/01/25 06:13:50;;;;;;;22.42;11.05;;;;;;;-2.15;100.00;100114.56;5157830;27;20046;-65
2023/01/25 06:16:17;;;;;;;26.25;12.20;;;;;;;-2.22;100.00;100077.16;5158187;27;20330;-65
2023/01/25 06:18:43;;;;;;;23.63;11.95;;;;;;;-2.49;100.00;100098.72;5157961;27;20053;-67
2023/01/25 06:21:10;;;;;;;31.73;13.60;;;;;;;-2.48;100.00;100139.78;5158134;27;20050;-66
2023/01/25 06:23:36;;;;;;;26.95;12.32;;;;;;;-2.46;100.00;100181.44;5157627;27;20071;-67
2023/01/25 06:26:05;;;;;;;28.63;13.18;;;;;;;-2.56;100.00;100172.50;5157554;27;20131;-64
2023/01/25 06:28:32;;;;;;;24.48;12.00;;;;;;;-2.41;100.00;100194.91;5157326;27;20480;-64
2023/01/25 06:31:03;;;;;;;28.65;11.88;;;;;;;-2.39;100.00;100183.94;5157637;27;20050;-64
2023/01/25 06:33:29;;;;;;;38.30;14.15;;;;;;;-2.35;100.00;100198.47;5157816;27;20047;-63
2023/01/25 06:35:59;;;;;;;25.88;11.63;;;;;;;-2.23;100.00;100187.53;5157478;27;20061;-66
2023/01/25 06:38:25;;;;;;;35.88;15.05;;;;;;;-2.27;100.00;100155.00;5157756;27;20062;-63
2023/01/25 06:40:52;;;;;;;35.50;14.13;;;;;;;-2.25;100.00;100152.09;5157507;27;20046;-67
2023/01/25 06:43:18;;;;;;;38.75;13.55;;;;;;;-2.10;100.00;100162.13;5157320;27;20050;-64
2023/01/25 06:45:45;;;;;;;37.85;15.48;;;;;;;-2.10;100.00;100197.88;5157555;27;20042;-73
2023/01/25 06:48:11;;;;;;;46.35;14.68;;;;;;;-1.90;100.00;100170.34;5157610;27;20170;-66
2023/01/25 06:50:37;;;;;;;65.55;17.05;;;;;;;-1.75;100.00;100175.03;5157552;27;20046;-70
2023/01/25 06:53:03;;;;;;;40.83;14.65;;;;;;;-1.83;100.00;100130.66;5159844;27;20137;-65
2023/01/25 06:55:29;;;;;;;43.97;16.30;;;;;;;-1.80;100.00;100123.91;5160859;27;20050;-68
2023/01/25 06:58:00;;;;;;;65.18;19.13;;;;;;;-1.93;100.00;100101.03;5161130;27;20065;-68
2023/01/25 07:00:26;;;;;;;37.90;15.38;;;;;;;-1.88;100.00;100073.34;5160835;27;20053;-67
2023/01/25 07:02:53;;;;;;;41.33;16.33;;;;;;;-1.91;100.00;100056.66;5161044;27;20409;-65
2023/01/25 07:05:19;;;;;;;32.17;14.38;;;;;;;-1.98;100.00;100041.84;5161007;27;20047;-68
2023/01/25 07:07:46;;;;;;;28.45;12.98;;;;;;;-1.97;100.00;100046.94;5161151;27;20050;-65
2023/01/25 07:10:12;;;;;;;37.05;15.68;;;;;;;-1.99;100.00;100051.00;5160920;27;20323;-66
2023/01/25 07:12:38;;;;;;;30.55;12.90;;;;;;;-1.92;100.00;100051.56;5161060;27;20054;-65
2023/01/25 07:15:05;;;;;;;26.00;11.68;;;;;;;-2.02;100.00;100030.81;5160653;27;20317;-68
2023/01/25 07:17:32;;;;;;;31.38;13.80;;;;;;;-2.03;100.00;100048.03;5160721;27;20046;-67
2023/01/25 07:19:58;;;;;;;24.90;10.57;;;;;;;-2.02;100.00;100062.25;5160804;27;20050;-62
2023/01/25 07:22:24;;;;;;;21.80;11.52;;;;;;;-1.99;100.00;100034.88;5160592;27;20047;-67
2023/01/25 07:24:52;;;;;;;28.02;12.20;;;;;;;-2.42;100.00;100067.09;5160519;27;20053;-67
2023/01/25 07:27:19;;;;;;;26.52;12.52;;;;;;;-2.23;100.00;100128.44;5160434;27;20051;-66
2023/01/25 07:29:45;;;;;;;24.98;11.82;;;;;;;-2.02;100.00;100167.06;5160493;27;20042;-66
2023/01/25 07:32:13;;;;;;;25.42;11.20;;;;;;;-1.95;100.00;100132.69;5160446;27;20340;-67
2023/01/25 07:34:40;;;;;;;23.40;11.30;;;;;;;-2.00;100.00;100116.53;5161093;27;20441;-71
2023/01/25 07:37:06;;;;;;;24.20;11.55;;;;;;;-1.88;100.00;100094.84;5160465;27;20126;-68
2023/01/25 07:39:32;;;;;;;22.20;10.60;;;;;;;-1.74;100.00;100093.31;5160735;27;20050;-69
2023/01/25 07:41:58;;;;;;;23.35;10.43;;;;;;;-1.75;100.00;100059.44;5160245;27;20065;-68
2023/01/25 07:44:24;;;;;;;28.85;12.38;;;;;;;-1.69;100.00;100048.44;5160622;27;20412;-68
2023/01/25 07:46:52;;;;;;;18.85;9.93;;;;;;;-1.87;100.00;100010.47;5160165;27;20434;-69
2023/01/25 07:49:19;;;;;;;15.68;7.50;;;;;;;-1.69;100.00;100053.84;5160228;27;20110;-69
2023/01/25 07:51:46;;;;;;;15.90;8.32;;;;;;;-1.49;100.00;99995.84;5160333;27;20359;-66
2023/01/25 07:54:12;;;;;;;13.65;7.30;;;;;;;-1.63;100.00;99932.84;5159982;27;20096;-68
2023/01/25 07:56:39;;;;;;;17.88;7.38;;;;;;;-1.52;100.00;99937.19;5160227;27;20066;-66
2023/01/25 07:59:07;;;;;;;16.25;8.05;;;;;;;-1.40;100.00;99896.59;5159792;27;20064;-70
2023/01/25 08:01:33;;;;;;;12.65;7.00;;;;;;;-1.31;100.00;99865.41;5160280;27;20114;-68
2023/01/25 08:04:00;;;;;;;21.42;9.02;;;;;;;-1.26;100.00;99874.28;5159544;27;20054;-67
2023/01/25 08:06:34;;;;;;;16.00;8.10;;;;;;;-1.10;100.00;99860.81;5160174;27;20050;-68
2023/01/25 08:09:04;;;;;;;18.02;8.05;;;;;;;-1.27;100.00;99837.69;5159737;27;20141;-69
2023/01/25 08:11:31;;;;;;;27.20;9.15;;;;;;;-1.42;100.00;99849.25;5160006;27;20098;-68
2023/01/25 08:14:00;;;;;;;20.10;9.63;;;;;;;-1.33;100.00;99840.63;5159973;27;20368;-70
2023/01/25 08:16:28;;;;;;;18.42;9.95;;;;;;;-1.09;100.00;99838.22;5159895;27;20137;-70
2023/01/25 08:18:55;;;;;;;19.63;10.18;;;;;;;-1.29;100.00;99826.41;5160154;27;20062;-69
2023/01/25 08:21:24;;;;;;;19.90;9.85;;;;;;;-1.10;100.00;99829.34;5159560;27;20051;-68
2023/01/25 08:23:50;;;;;;;20.55;9.02;;;;;;;-1.42;100.00;99827.75;5159788;27;20047;-66
2023/01/25 08:26:17;;;;;;;19.63;9.80;;;;;;;-1.09;100.00;99843.59;5159454;27;20178;-69
2023/01/25 08:28:44;;;;;;;26.90;10.93;;;;;;;-0.87;100.00;99829.81;5159950;27;20050;-68
2023/01/25 08:31:12;;;;;;;19.58;10.57;;;;;;;-1.08;100.00;99815.59;5159492;27;20315;-66
2023/01/25 08:33:39;;;;;;;21.05;10.30;;;;;;;-1.03;100.00;99843.31;5159761;27;20424;-67
2023/01/25 08:36:07;;;;;;;17.67;9.65;;;;;;;-0.82;100.00;99824.44;5159238;27;20102;-69
2023/01/25 08:38:33;;;;;;;23.63;12.13;;;;;;;-1.16;100.00;99802.72;5159532;27;20050;-68
2023/01/25 08:41:05;;;;;;;24.08;10.52;;;;;;;-1.52;100.00;99832.31;5159324;27;20054;-63
2023/01/25 08:43:32;;;;;;;21.98;10.68;;;;;;;-1.02;100.00;99860.28;5158935;27;20051;-70
2023/01/25 08:45:58;;;;;;;22.50;11.32;;;;;;;-1.43;100.00;99822.66;5159153;27;20046;-63
2023/01/25 08:48:24;;;;;;;22.05;10.57;;;;;;;-1.11;100.00;99851.94;5159309;27;20055;-69
2023/01/25 08:50:50;;;;;;;26.13;11.90;;;;;;;-1.17;100.00;99820.72;5160819;27;20050;-67
2023/01/25 08:53:17;;;;;;;22.13;10.65;;;;;;;-1.63;100.00;99815.38;5158871;27;20092;-67
2023/01/25 08:55:43;;;;;;;25.02;11.27;;;;;;;-1.31;100.00;99851.94;5159332;27;20046;-63
2023/01/25 08:58:10;;;;;;;22.23;11.57;;;;;;;-1.09;100.00;99836.34;5158869;27;20055;-65
2023/01/25 09:00:37;;;;;;;24.25;11.38;;;;;;;-0.96;100.00;99833.09;5159396;27;20061;-66
2023/01/25 09:03:03;;;;;;;25.48;12.23;;;;;;;-1.19;100.00;99822.91;5158872;27;20141;-67
2023/01/25 09:05:30;;;;;;;25.00;12.45;;;;;;;-1.33;100.00;99824.50;5159166;27;20408;-67
2023/01/25 09:07:57;;;;;;;24.75;12.43;;;;;;;-1.48;100.00;99833.38;5159156;27;20058;-69
2023/01/25 09:10:24;;;;;;;23.33;10.70;;;;;;;-1.38;100.00;99849.53;5158789;27;20051;-67
2023/01/25 09:12:50;;;;;;;23.95;10.55;;;;;;;-1.31;100.00;99852.75;5159061;27;20051;-69
2023/01/25 09:15:16;;;;;;;21.50;11.52;;;;;;;-1.15;100.00;99847.38;5157786;27;20046;-71
2023/01/25 09:17:43;;;;;;;24.17;11.85;;;;;;;-0.90;100.00;99830.38;5158823;27;20054;-69
2023/01/25 09:20:11;;;;;;;22.38;10.80;;;;;;;-1.13;100.00;99791.38;5158807;27;20134;-69
2023/01/25 09:22:37;;;;;;;24.45;11.95;;;;;;;-0.95;100.00;99783.56;5159353;27;20408;-73
2023/01/25 09:25:04;;;;;;;23.45;11.77;;;;;;;-0.73;100.00;99774.34;5158662;27;20051;-72
2023/01/25 09:27:30;;;;;;;28.33;12.57;;;;;;;-0.77;100.00;99760.63;5158859;27;20137;-68
2023/01/25 09:29:57;;;;;;;31.77;13.82;;;;;;;-1.47;100.00;99771.25;5158381;27;20047;-68
2023/01/25 09:32:23;;;;;;;23.58;12.15;;;;;;;-1.76;100.00;99802.47;5158037;27;20198;-68
2023/01/25 09:34:50;;;;;;;33.90;13.18;;;;;;;-1.66;100.00;99850.88;5158392;27;20323;-67
2023/01/25 09:37:16;;;;;;;25.08;13.15;;;;;;;-1.64;100.00;99870.22;5158488;27;20057;-70
2023/01/25 09:39:42;;;;;;;31.52;14.48;;;;;;;-1.59;100.00;99891.75;5158494;27;20058;-68
2023/01/25 09:42:40;;;;;;;21.50;10.93;;;;;;;-1.75;100.00;99871.28;5158619;27;20065;-70
2023/01/25 09:45:23;;;;;;;27.27;13.18;;;;;;;-1.69;100.00;99876.41;5154563;27;20046;-62
2023/01/25 09:47:56;;;;;;;27.60;14.25;;;;;;;-1.32;100.00;99896.88;5158272;27;20050;-73
2023/01/25 09:50:32;;;;;;;29.50;14.98;;;;;;;-1.29;100.00;99906.28;5158889;27;20047;-65
2023/01/25 09:53:26;;;;;;;26.85;12.82;;;;;;;-1.24;100.00;99908.97;5158722;27;20205;-66
2023/01/25 09:55:58;;;;;;;29.80;15.40;;;;;;;-0.96;100.00;99875.34;5158279;27;20053;-65
2023/01/25 09:58:31;;;;;;;27.05;13.57;;;;;;;-0.85;100.00;99850.00;5158465;27;20059;-70
2023/01/25 10:01:15;;;;;;;28.40;13.52;;;;;;;-0.50;100.00;99815.97;5158266;27;20384;-66
2023/01/25 10:03:49;;;;;;;24.10;13.80;;;;;;;-1.20;100.00;99767.44;5158520;27;20042;-67
2023/01/25 10:06:18;;;;;;;29.52;12.90;;;;;;;-0.80;100.00;99758.47;5157955;27;20050;-64
2023/01/25 10:08:53;;;;;;;24.10;13.10;;;;;;;-1.34;100.00;99755.66;5157675;27;20042;-68
2023/01/25 10:11:24;;;;;;;27.88;12.77;;;;;;;-1.59;100.00;99794.13;5157987;27;20047;-64
2023/01/25 10:13:50;;;;;;;26.42;14.30;;;;;;;-1.54;100.00;99802.19;5157615;27;20054;-70
2023/01/25 10:16:23;;;;;;;27.15;13.45;;;;;;;-1.50;100.00;99790.66;5158270;27;20083;-65
2023/01/25 10:18:58;;;;;;;25.77;13.68;;;;;;;-0.86;100.00;99804.53;5157644;27;20479;-66
2023/01/25 10:21:29;;;;;;;30.02;14.07;;;;;;;-1.22;100.00;99796.53;5157996;27;20065;-68
2023/01/25 10:24:33;;;;;;;27.50;14.00;;;;;;;-1.57;100.00;99789.28;5157733;27;20054;-68
2023/01/25 10:27:07;;;;;;;26.93;12.63;;;;;;;-1.29;100.00;99831.78;5162392;27;20400;-70
2023/01/25 10:29:36;;;;;;;24.00;13.32;;;;;;;-1.38;100.00;99836.06;5164218;27;20100;-69
2023/01/25 10:32:17;;;;;;;26.50;13.05;;;;;;;-0.71;100.00;99842.16;5164630;27;20056;-67
2023/01/25 10:34:47;;;;;;;25.45;11.60;;;;;;;-0.57;100.00;99775.06;5164559;27;20355;-69
2023/01/25 10:37:16;;;;;;;26.02;12.88;;;;;;;-0.51;100.00;99728.97;5164924;27;20297;-67
2023/01/25 10:39:55;;;;;;;27.85;13.65;;;;;;;-0.57;100.00;99713.13;5164443;27;20095;-67
2023/01/25 10:42:25;;;;;;;26.42;12.82;;;;;;;-0.61;100.00;99720.16;5164288;27;20475;-64
2023/01/25 10:44:51;;;;;;;25.15;13.18;;;;;;;-0.62;100.00;99692.44;5164388;27;20061;-68
2023/01/25 10:47:23;;;;;;;26.30;12.90;;;;;;;-0.53;100.00;99690.75;5164376;27;20106;-71
2023/01/25 10:49:53;;;;;;;33.10;13.70;;;;;;;-0.96;100.00;99674.28;5164610;27;20372;-73
2023/01/25 10:52:22;;;;;;;29.00;12.43;;;;;;;-1.23;100.00;99698.88;5163881;27;20143;-70
2023/01/25 10:55:05;;;;;;;28.80;13.68;;;;;;;-1.00;100.00;99718.16;5164512;27;20042;-65
2023/01/25 10:57:34;;;;;;;26.92;11.65;;;;;;;-0.85;100.00;99710.03;5164171;27;20043;-70
2023/01/25 11:00:04;;;;;;;26.58;12.40;;;;;;;-0.69;100.00;99699.19;5164711;27;20065;-68
2023/01/25 11:02:39;;;;;;;25.13;11.70;;;;;;;-0.56;100.00;99709.38;5163960;27;20456;-65
2023/01/25 11:05:30;;;;;;;23.05;13.00;;;;;;;-0.69;100.00;99699.19;5164325;27;20047;-69
2023/01/25 11:07:58;;;;;;;25.83;13.57;;;;;;;-0.28;100.00;99683.59;5164234;27;20057;-68
2023/01/25 11:10:28;;;;;;;23.00;12.93;;;;;;;-0.53;100.00;99653.06;5164097;27;20047;-69
2023/01/25 11:13:20;;;;;;;29.00;12.02;;;;;;;-0.11;100.00;99640.88;5164416;27;20086;-69